sensor_id;sensor_type;location;lat;lon;timestamp;P1;durP1;ratioP1;P2;durP2;ratioP2
59008;SDS011;44794;42.652;23.318;2023-02-23T00:01:23;24.23;;;12.65;;
59008;SDS011;44794;42.652;23.318;2023-02-23T00:03:54;22.27;;;12.68;;
59008;SDS011;44794;42.652;23.318;2023-02-23T00:06:21;20.05;;;12.32;;
59008;SDS011;44794;42.652;23.318;2023-02-23T00:08:47;20.90;;;12.13;;
59008;SDS011;44794;42.652;23.318;2023-02-23T00:11:14;21.25;;;12.57;;
59008;SDS011;44794;42.652;23.318;2023-02-23T00:13:40;21.58;;;12.20;;
59008;SDS011;44794;42.652;23.318;2023-02-23T00:16:11;17.20;;;11.57;;
59008;SDS011;44794;42.652;23.318;2023-02-23T00:18:41;19.73;;;11.75;;
59008;SDS011;44794;42.652;23.318;2023-02-23T00:21:22;23.50;;;12.85;;
59008;SDS011;44794;42.652;23.318;2023-02-23T00:26:19;23.40;;;13.40;;
59008;SDS011;44794;42.652;23.318;2023-02-23T00:28:47;22.75;;;12.98;;
59008;SDS011;44794;42.652;23.318;2023-02-23T00:31:13;23.38;;;13.55;;
59008;SDS011;44794;42.652;23.318;2023-02-23T00:33:39;26.92;;;14.38;;
59008;SDS011;44794;42.652;23.318;2023-02-23T00:36:06;23.02;;;13.45;;
59008;SDS011;44794;42.652;23.318;2023-02-23T00:38:34;21.65;;;11.98;;
59008;SDS011;44794;42.652;23.318;2023-02-23T00:41:10;20.50;;;12.20;;
59008;SDS011;44794;42.652;23.318;2023-02-23T00:43:38;21.00;;;13.50;;
59008;SDS011;44794;42.652;23.318;2023-02-23T00:46:18;25.58;;;13.05;;
59008;SDS011;44794;42.652;23.318;2023-02-23T00:48:47;23.85;;;13.90;;
59008;SDS011;44794;42.652;23.318;2023-02-23T00:51:14;25.50;;;13.85;;
59008;SDS011;44794;42.652;23.318;2023-02-23T00:53:40;25.90;;;14.80;;
59008;SDS011;44794;42.652;23.318;2023-02-23T00:56:07;24.13;;;13.40;;
59008;SDS011;44794;42.652;23.318;2023-02-23T00:58:34;24.48;;;13.32;;
59008;SDS011;44794;42.652;23.318;2023-02-23T01:00:59;22.13;;;12.75;;
59008;SDS011;44794;42.652;23.318;2023-02-23T01:03:25;20.95;;;12.82;;
59008;SDS011;44794;42.652;23.318;2023-02-23T01:05:52;25.40;;;13.48;;
59008;SDS011;44794;42.652;23.318;2023-02-23T01:08:19;24.67;;;14.30;;
59008;SDS011;44794;42.652;23.318;2023-02-23T01:10:48;21.55;;;11.25;;
59008;SDS011;44794;42.652;23.318;2023-02-23T01:13:18;19.55;;;11.43;;
59008;SDS011;44794;42.652;23.318;2023-02-23T01:15:44;21.73;;;11.48;;
59008;SDS011;44794;42.652;23.318;2023-02-23T01:18:11;16.83;;;10.43;;
59008;SDS011;44794;42.652;23.318;2023-02-23T01:20:38;19.45;;;11.23;;
59008;SDS011;44794;42.652;23.318;2023-02-23T01:23:06;17.20;;;9.77;;
59008;SDS011;44794;42.652;23.318;2023-02-23T01:25:33;18.83;;;11.48;;
59008;SDS011;44794;42.652;23.318;2023-02-23T01:27:59;19.80;;;11.48;;
59008;SDS011;44794;42.652;23.318;2023-02-23T01:30:25;21.00;;;12.20;;
59008;SDS011;44794;42.652;23.318;2023-02-23T01:32:50;19.15;;;11.15;;
59008;SDS011;44794;42.652;23.318;2023-02-23T01:35:16;21.95;;;11.82;;
59008;SDS011;44794;42.652;23.318;2023-02-23T01:37:42;19.02;;;12.02;;
59008;SDS011;44794;42.652;23.318;2023-02-23T01:40:12;31.95;;;16.40;;
59008;SDS011;44794;42.652;23.318;2023-02-23T01:42:41;58.85;;;27.50;;
59008;SDS011;44794;42.652;23.318;2023-02-23T01:45:28;100.45;;;37.83;;
59008;SDS011;44794;42.652;23.318;2023-02-23T01:48:03;88.70;;;34.40;;
59008;SDS011;44794;42.652;23.318;2023-02-23T01:50:32;64.40;;;27.85;;
59008;SDS011;44794;42.652;23.318;2023-02-23T01:53:02;49.58;;;22.75;;
59008;SDS011;44794;42.652;23.318;2023-02-23T01:55:29;58.97;;;27.02;;
59008;SDS011;44794;42.652;23.318;2023-02-23T01:57:57;52.80;;;26.60;;
59008;SDS011;44794;42.652;23.318;2023-02-23T02:00:28;54.40;;;26.92;;
59008;SDS011;44794;42.652;23.318;2023-02-23T02:02:55;45.63;;;24.67;;
59008;SDS011;44794;42.652;23.318;2023-02-23T02:05:23;43.58;;;22.52;;
59008;SDS011;44794;42.652;23.318;2023-02-23T02:07:49;41.25;;;22.77;;
59008;SDS011;44794;42.652;23.318;2023-02-23T02:10:23;45.25;;;23.80;;
59008;SDS011;44794;42.652;23.318;2023-02-23T02:13:11;41.75;;;22.80;;
59008;SDS011;44794;42.652;23.318;2023-02-23T02:16:16;39.78;;;20.85;;
59008;SDS011;44794;42.652;23.318;2023-02-23T02:18:58;36.20;;;19.95;;
59008;SDS011;44794;42.652;23.318;2023-02-23T02:22:16;38.28;;;19.67;;
59008;SDS011;44794;42.652;23.318;2023-02-23T02:24:43;30.42;;;17.45;;
59008;SDS011;44794;42.652;23.318;2023-02-23T02:27:39;25.70;;;15.77;;
59008;SDS011;44794;42.652;23.318;2023-02-23T02:47:57;28.33;;;16.23;;
59008;SDS011;44794;42.652;23.318;2023-02-23T02:50:40;28.73;;;16.63;;
59008;SDS011;44794;42.652;23.318;2023-02-23T02:53:07;27.05;;;15.80;;
59008;SDS011;44794;42.652;23.318;2023-02-23T02:55:35;32.53;;;16.58;;
59008;SDS011;44794;42.652;23.318;2023-02-23T02:58:05;33.38;;;17.48;;
59008;SDS011;44794;42.652;23.318;2023-02-23T03:00:36;30.02;;;17.42;;
59008;SDS011;44794;42.652;23.318;2023-02-23T03:03:29;27.27;;;16.85;;
59008;SDS011;44794;42.652;23.318;2023-02-23T03:06:17;26.50;;;16.38;;
59008;SDS011;44794;42.652;23.318;2023-02-23T03:09:12;28.58;;;16.45;;
59008;SDS011;44794;42.652;23.318;2023-02-23T03:18:20;33.15;;;18.13;;
59008;SDS011;44794;42.652;23.318;2023-02-23T03:21:11;30.98;;;17.58;;
59008;SDS011;44794;42.652;23.318;2023-02-23T03:27:07;34.15;;;18.60;;
59008;SDS011;44794;42.652;23.318;2023-02-23T03:30:05;28.40;;;17.10;;
59008;SDS011;44794;42.652;23.318;2023-02-23T03:32:54;32.42;;;17.98;;
59008;SDS011;44794;42.652;23.318;2023-02-23T03:41:50;29.90;;;17.63;;
59008;SDS011;44794;42.652;23.318;2023-02-23T03:44:38;35.65;;;17.75;;
59008;SDS011;44794;42.652;23.318;2023-02-23T03:47:26;30.65;;;18.45;;
59008;SDS011;44794;42.652;23.318;2023-02-23T03:50:16;33.72;;;18.42;;
59008;SDS011;44794;42.652;23.318;2023-02-23T03:53:24;36.42;;;19.85;;
59008;SDS011;44794;42.652;23.318;2023-02-23T03:56:17;41.25;;;20.70;;
59008;SDS011;44794;42.652;23.318;2023-02-23T03:59:06;43.17;;;24.10;;
59008;SDS011;44794;42.652;23.318;2023-02-23T04:01:53;47.95;;;24.95;;
59008;SDS011;44794;42.652;23.318;2023-02-23T04:04:39;48.25;;;25.88;;
59008;SDS011;44794;42.652;23.318;2023-02-23T04:07:25;44.88;;;25.08;;
59008;SDS011;44794;42.652;23.318;2023-02-23T04:10:10;45.72;;;24.90;;
59008;SDS011;44794;42.652;23.318;2023-02-23T04:18:25;43.75;;;23.90;;
59008;SDS011;44794;42.652;23.318;2023-02-23T04:20:53;42.75;;;24.17;;
59008;SDS011;44794;42.652;23.318;2023-02-23T04:23:20;44.00;;;24.08;;
59008;SDS011;44794;42.652;23.318;2023-02-23T04:25:47;48.58;;;23.88;;
59008;SDS011;44794;42.652;23.318;2023-02-23T04:28:13;45.63;;;24.08;;
59008;SDS011;44794;42.652;23.318;2023-02-23T04:30:40;40.85;;;23.20;;
59008;SDS011;44794;42.652;23.318;2023-02-23T04:33:05;43.25;;;22.00;;
59008;SDS011;44794;42.652;23.318;2023-02-23T04:35:31;42.63;;;22.92;;
59008;SDS011;44794;42.652;23.318;2023-02-23T04:37:57;45.58;;;23.85;;
59008;SDS011;44794;42.652;23.318;2023-02-23T04:40:23;45.30;;;22.88;;
59008;SDS011;44794;42.652;23.318;2023-02-23T04:42:49;39.58;;;22.73;;
59008;SDS011;44794;42.652;23.318;2023-02-23T04:45:14;44.75;;;23.25;;
59008;SDS011;44794;42.652;23.318;2023-02-23T04:47:40;43.30;;;23.92;;
59008;SDS011;44794;42.652;23.318;2023-02-23T04:50:05;41.22;;;22.98;;
59008;SDS011;44794;42.652;23.318;2023-02-23T04:52:31;42.50;;;23.52;;
59008;SDS011;44794;42.652;23.318;2023-02-23T04:54:59;45.03;;;23.90;;
59008;SDS011;44794;42.652;23.318;2023-02-23T04:57:24;42.38;;;24.48;;
59008;SDS011;44794;42.652;23.318;2023-02-23T04:59:50;49.03;;;28.15;;
59008;SDS011;44794;42.652;23.318;2023-02-23T05:02:16;47.47;;;25.20;;
59008;SDS011;44794;42.652;23.318;2023-02-23T05:04:42;46.20;;;24.63;;
59008;SDS011;44794;42.652;23.318;2023-02-23T05:07:08;46.35;;;25.63;;
59008;SDS011;44794;42.652;23.318;2023-02-23T05:09:34;50.72;;;27.08;;
59008;SDS011;44794;42.652;23.318;2023-02-23T05:11:59;47.72;;;26.02;;
59008;SDS011;44794;42.652;23.318;2023-02-23T05:14:25;51.03;;;26.52;;
59008;SDS011;44794;42.652;23.318;2023-02-23T05:16:51;49.83;;;27.75;;
59008;SDS011;44794;42.652;23.318;2023-02-23T05:19:16;52.75;;;28.10;;
59008;SDS011;44794;42.652;23.318;2023-02-23T05:21:42;53.85;;;29.75;;
59008;SDS011;44794;42.652;23.318;2023-02-23T05:24:07;52.67;;;28.42;;
59008;SDS011;44794;42.652;23.318;2023-02-23T05:26:33;55.60;;;28.70;;
59008;SDS011;44794;42.652;23.318;2023-02-23T05:28:58;51.95;;;28.58;;
59008;SDS011;44794;42.652;23.318;2023-02-23T05:31:23;50.28;;;28.67;;
59008;SDS011;44794;42.652;23.318;2023-02-23T05:33:50;49.47;;;26.60;;
59008;SDS011;44794;42.652;23.318;2023-02-23T05:36:16;47.33;;;27.02;;
59008;SDS011;44794;42.652;23.318;2023-02-23T05:38:43;45.75;;;26.80;;
59008;SDS011;44794;42.652;23.318;2023-02-23T05:41:17;48.25;;;26.40;;
59008;SDS011;44794;42.652;23.318;2023-02-23T05:43:44;49.88;;;27.77;;
59008;SDS011;44794;42.652;23.318;2023-02-23T05:46:10;54.88;;;27.75;;
59008;SDS011;44794;42.652;23.318;2023-02-23T05:48:39;49.08;;;27.10;;
59008;SDS011;44794;42.652;23.318;2023-02-23T05:51:05;47.13;;;26.20;;
59008;SDS011;44794;42.652;23.318;2023-02-23T05:53:32;46.13;;;24.73;;
59008;SDS011;44794;42.652;23.318;2023-02-23T05:55:59;39.53;;;24.27;;
59008;SDS011;44794;42.652;23.318;2023-02-23T05:58:25;40.50;;;23.05;;
59008;SDS011;44794;42.652;23.318;2023-02-23T06:00:51;42.45;;;23.35;;
59008;SDS011;44794;42.652;23.318;2023-02-23T06:03:17;37.70;;;22.10;;
59008;SDS011;44794;42.652;23.318;2023-02-23T06:05:48;43.80;;;22.30;;
59008;SDS011;44794;42.652;23.318;2023-02-23T06:08:14;41.40;;;22.13;;
59008;SDS011;44794;42.652;23.318;2023-02-23T06:10:40;40.58;;;22.48;;
59008;SDS011;44794;42.652;23.318;2023-02-23T06:13:05;43.15;;;25.40;;
59008;SDS011;44794;42.652;23.318;2023-02-23T06:15:31;47.05;;;26.98;;
59008;SDS011;44794;42.652;23.318;2023-02-23T06:17:56;48.20;;;28.23;;
59008;SDS011;44794;42.652;23.318;2023-02-23T06:20:22;46.50;;;28.10;;
59008;SDS011;44794;42.652;23.318;2023-02-23T06:22:47;39.08;;;23.73;;
59008;SDS011;44794;42.652;23.318;2023-02-23T06:25:13;45.60;;;26.27;;
59008;SDS011;44794;42.652;23.318;2023-02-23T06:27:38;47.90;;;26.73;;
59008;SDS011;44794;42.652;23.318;2023-02-23T06:30:04;48.08;;;27.67;;
59008;SDS011;44794;42.652;23.318;2023-02-23T06:32:31;46.38;;;27.30;;
59008;SDS011;44794;42.652;23.318;2023-02-23T06:34:56;57.88;;;28.85;;
59008;SDS011;44794;42.652;23.318;2023-02-23T06:37:26;53.63;;;28.45;;
59008;SDS011;44794;42.652;23.318;2023-02-23T06:39:51;45.92;;;27.30;;
59008;SDS011;44794;42.652;23.318;2023-02-23T06:42:16;52.58;;;28.77;;
59008;SDS011;44794;42.652;23.318;2023-02-23T06:44:42;56.00;;;30.67;;
59008;SDS011;44794;42.652;23.318;2023-02-23T06:47:07;49.17;;;26.75;;
59008;SDS011;44794;42.652;23.318;2023-02-23T06:49:33;43.58;;;24.40;;
59008;SDS011;44794;42.652;23.318;2023-02-23T06:51:58;28.98;;;15.68;;
59008;SDS011;44794;42.652;23.318;2023-02-23T06:54:24;32.22;;;15.05;;
59008;SDS011;44794;42.652;23.318;2023-02-23T06:56:50;27.48;;;14.93;;
59008;SDS011;44794;42.652;23.318;2023-02-23T06:59:17;28.75;;;14.75;;
59008;SDS011;44794;42.652;23.318;2023-02-23T07:01:42;29.05;;;14.77;;
59008;SDS011;44794;42.652;23.318;2023-02-23T07:04:08;24.90;;;14.80;;
59008;SDS011;44794;42.652;23.318;2023-02-23T07:06:34;29.10;;;14.52;;
59008;SDS011;44794;42.652;23.318;2023-02-23T07:09:02;27.83;;;15.02;;
59008;SDS011;44794;42.652;23.318;2023-02-23T07:11:30;29.02;;;14.52;;
59008;SDS011;44794;42.652;23.318;2023-02-23T07:13:58;33.38;;;14.85;;
59008;SDS011;44794;42.652;23.318;2023-02-23T07:16:25;33.67;;;15.02;;
59008;SDS011;44794;42.652;23.318;2023-02-23T07:18:54;25.70;;;14.20;;
59008;SDS011;44794;42.652;23.318;2023-02-23T07:21:19;24.67;;;14.55;;
59008;SDS011;44794;42.652;23.318;2023-02-23T07:23:45;27.27;;;15.32;;
59008;SDS011;44794;42.652;23.318;2023-02-23T07:26:14;28.35;;;15.45;;
59008;SDS011;44794;42.652;23.318;2023-02-23T07:28:41;25.02;;;14.57;;
59008;SDS011;44794;42.652;23.318;2023-02-23T07:31:07;27.75;;;15.70;;
59008;SDS011;44794;42.652;23.318;2023-02-23T07:33:32;29.48;;;15.60;;
59008;SDS011;44794;42.652;23.318;2023-02-23T07:35:58;29.52;;;15.82;;
59008;SDS011;44794;42.652;23.318;2023-02-23T07:38:23;32.33;;;17.00;;
59008;SDS011;44794;42.652;23.318;2023-02-23T07:40:49;27.63;;;17.40;;
59008;SDS011;44794;42.652;23.318;2023-02-23T07:43:15;34.47;;;17.10;;
59008;SDS011;44794;42.652;23.318;2023-02-23T07:45:41;34.10;;;17.45;;
59008;SDS011;44794;42.652;23.318;2023-02-23T07:48:07;29.80;;;15.32;;
59008;SDS011;44794;42.652;23.318;2023-02-23T07:50:32;27.55;;;15.30;;
59008;SDS011;44794;42.652;23.318;2023-02-23T07:52:59;31.73;;;14.93;;
59008;SDS011;44794;42.652;23.318;2023-02-23T07:55:25;25.85;;;15.25;;
59008;SDS011;44794;42.652;23.318;2023-02-23T07:57:51;29.65;;;16.02;;
59008;SDS011;44794;42.652;23.318;2023-02-23T08:00:17;29.85;;;16.17;;
59008;SDS011;44794;42.652;23.318;2023-02-23T08:02:42;26.92;;;15.35;;
59008;SDS011;44794;42.652;23.318;2023-02-23T08:05:08;26.77;;;15.02;;
59008;SDS011;44794;42.652;23.318;2023-02-23T08:07:33;26.98;;;15.38;;
59008;SDS011;44794;42.652;23.318;2023-02-23T08:09:59;27.00;;;15.52;;
59008;SDS011;44794;42.652;23.318;2023-02-23T08:12:24;28.45;;;15.48;;
59008;SDS011;44794;42.652;23.318;2023-02-23T08:14:50;28.40;;;16.02;;
59008;SDS011;44794;42.652;23.318;2023-02-23T08:17:15;23.95;;;15.15;;
59008;SDS011;44794;42.652;23.318;2023-02-23T08:19:40;59.92;;;18.10;;
59008;SDS011;44794;42.652;23.318;2023-02-23T08:22:06;30.75;;;16.65;;
59008;SDS011;44794;42.652;23.318;2023-02-23T08:24:32;34.75;;;17.33;;
59008;SDS011;44794;42.652;23.318;2023-02-23T08:26:58;27.25;;;16.52;;
59008;SDS011;44794;42.652;23.318;2023-02-23T08:29:25;30.02;;;16.23;;
59008;SDS011;44794;42.652;23.318;2023-02-23T08:31:51;29.65;;;16.27;;
59008;SDS011;44794;42.652;23.318;2023-02-23T08:34:16;22.85;;;15.02;;
59008;SDS011;44794;42.652;23.318;2023-02-23T08:36:43;25.13;;;15.23;;
59008;SDS011;44794;42.652;23.318;2023-02-23T08:39:09;31.15;;;15.20;;
59008;SDS011;44794;42.652;23.318;2023-02-23T08:41:36;30.40;;;16.65;;
59008;SDS011;44794;42.652;23.318;2023-02-23T08:44:02;29.83;;;16.48;;
59008;SDS011;44794;42.652;23.318;2023-02-23T08:46:27;26.42;;;15.30;;
59008;SDS011;44794;42.652;23.318;2023-02-23T08:48:54;29.98;;;15.80;;
59008;SDS011;44794;42.652;23.318;2023-02-23T08:51:20;29.92;;;15.32;;
59008;SDS011;44794;42.652;23.318;2023-02-23T08:53:46;29.80;;;16.55;;
59008;SDS011;44794;42.652;23.318;2023-02-23T08:56:11;27.77;;;16.25;;
59008;SDS011;44794;42.652;23.318;2023-02-23T08:58:37;26.23;;;15.50;;
59008;SDS011;44794;42.652;23.318;2023-02-23T09:01:03;32.13;;;16.70;;
59008;SDS011;44794;42.652;23.318;2023-02-23T09:03:29;28.70;;;16.00;;
59008;SDS011;44794;42.652;23.318;2023-02-23T09:05:56;33.55;;;16.55;;
59008;SDS011;44794;42.652;23.318;2023-02-23T09:08:23;28.67;;;16.50;;
59008;SDS011;44794;42.652;23.318;2023-02-23T09:10:48;28.52;;;16.35;;
59008;SDS011;44794;42.652;23.318;2023-02-23T09:13:14;24.70;;;15.82;;
59008;SDS011;44794;42.652;23.318;2023-02-23T09:15:40;34.13;;;17.45;;
59008;SDS011;44794;42.652;23.318;2023-02-23T09:18:07;32.17;;;15.55;;
59008;SDS011;44794;42.652;23.318;2023-02-23T09:23:04;34.65;;;16.67;;
59008;SDS011;44794;42.652;23.318;2023-02-23T09:25:30;30.35;;;17.30;;
59008;SDS011;44794;42.652;23.318;2023-02-23T09:27:56;30.67;;;18.08;;
59008;SDS011;44794;42.652;23.318;2023-02-23T09:30:24;28.23;;;15.77;;
59008;SDS011;44794;42.652;23.318;2023-02-23T09:32:51;24.02;;;15.43;;
59008;SDS011;44794;42.652;23.318;2023-02-23T09:35:19;24.52;;;15.55;;
59008;SDS011;44794;42.652;23.318;2023-02-23T09:37:46;27.90;;;16.20;;
59008;SDS011;44794;42.652;23.318;2023-02-23T09:40:13;30.90;;;16.25;;
59008;SDS011;44794;42.652;23.318;2023-02-23T09:50:31;23.45;;;14.70;;
59008;SDS011;44794;42.652;23.318;2023-02-23T09:53:10;24.33;;;15.35;;
59008;SDS011;44794;42.652;23.318;2023-02-23T09:55:38;27.52;;;14.20;;
59008;SDS011;44794;42.652;23.318;2023-02-23T09:58:17;23.48;;;14.02;;
59008;SDS011;44794;42.652;23.318;2023-02-23T10:00:49;29.08;;;15.32;;
59008;SDS011;44794;42.652;23.318;2023-02-23T10:03:27;24.27;;;13.27;;
59008;SDS011;44794;42.652;23.318;2023-02-23T10:05:57;23.15;;;14.30;;
59008;SDS011;44794;42.652;23.318;2023-02-23T10:08:45;22.80;;;14.15;;
59008;SDS011;44794;42.652;23.318;2023-02-23T10:17:31;24.23;;;13.95;;
59008;SDS011;44794;42.652;23.318;2023-02-23T10:22:51;34.05;;;15.68;;
59008;SDS011;44794;42.652;23.318;2023-02-23T10:25:20;25.15;;;14.77;;
59008;SDS011;44794;42.652;23.318;2023-02-23T10:27:50;28.95;;;15.65;;
59008;SDS011;44794;42.652;23.318;2023-02-23T10:30:26;27.23;;;15.27;;
59008;SDS011;44794;42.652;23.318;2023-02-23T10:35:40;26.70;;;14.27;;
59008;SDS011;44794;42.652;23.318;2023-02-23T10:38:07;24.05;;;13.85;;
59008;SDS011;44794;42.652;23.318;2023-02-23T10:40:38;23.75;;;12.93;;
59008;SDS011;44794;42.652;23.318;2023-02-23T10:43:05;22.08;;;13.55;;
59008;SDS011;44794;42.652;23.318;2023-02-23T10:45:33;25.40;;;13.77;;
59008;SDS011;44794;42.652;23.318;2023-02-23T10:48:07;24.00;;;14.65;;
59008;SDS011;44794;42.652;23.318;2023-02-23T10:50:37;25.02;;;13.18;;
59008;SDS011;44794;42.652;23.318;2023-02-23T10:53:18;20.30;;;12.27;;
59008;SDS011;44794;42.652;23.318;2023-02-23T10:55:45;19.58;;;12.25;;
59008;SDS011;44794;42.652;23.318;2023-02-23T10:58:24;19.25;;;12.73;;
59008;SDS011;44794;42.652;23.318;2023-02-23T11:03:17;21.92;;;14.20;;
59008;SDS011;44794;42.652;23.318;2023-02-23T11:05:48;22.27;;;12.88;;
59008;SDS011;44794;42.652;23.318;2023-02-23T11:16:19;22.80;;;12.55;;
59008;SDS011;44794;42.652;23.318;2023-02-23T11:21:25;20.25;;;11.60;;
59008;SDS011;44794;42.652;23.318;2023-02-23T11:23:54;15.85;;;9.40;;
59008;SDS011;44794;42.652;23.318;2023-02-23T11:26:35;17.88;;;9.30;;
59008;SDS011;44794;42.652;23.318;2023-02-23T11:31:46;14.90;;;8.77;;
59008;SDS011;44794;42.652;23.318;2023-02-23T11:34:23;13.55;;;8.15;;
59008;SDS011;44794;42.652;23.318;2023-02-23T11:37:06;15.90;;;8.40;;
59008;SDS011;44794;42.652;23.318;2023-02-23T11:40:00;14.63;;;8.70;;
59008;SDS011;44794;42.652;23.318;2023-02-23T11:42:28;12.98;;;8.07;;
59008;SDS011;44794;42.652;23.318;2023-02-23T11:45:02;15.20;;;7.78;;
59008;SDS011;44794;42.652;23.318;2023-02-23T11:47:30;12.77;;;7.78;;
59008;SDS011;44794;42.652;23.318;2023-02-23T11:49:59;13.75;;;7.50;;
59008;SDS011;44794;42.652;23.318;2023-02-23T11:52:26;16.60;;;8.50;;
59008;SDS011;44794;42.652;23.318;2023-02-23T11:57:23;10.93;;;7.10;;
59008;SDS011;44794;42.652;23.318;2023-02-23T11:59:55;13.25;;;7.88;;
59008;SDS011;44794;42.652;23.318;2023-02-23T12:02:26;12.80;;;7.47;;
59008;SDS011;44794;42.652;23.318;2023-02-23T12:05:06;12.25;;;7.68;;
59008;SDS011;44794;42.652;23.318;2023-02-23T12:12:41;12.95;;;7.57;;
59008;SDS011;44794;42.652;23.318;2023-02-23T12:15:22;18.63;;;7.75;;
59008;SDS011;44794;42.652;23.318;2023-02-23T12:17:54;11.93;;;7.32;;
59008;SDS011;44794;42.652;23.318;2023-02-23T12:20:25;10.68;;;7.32;;
59008;SDS011;44794;42.652;23.318;2023-02-23T12:23:16;11.68;;;7.43;;
59008;SDS011;44794;42.652;23.318;2023-02-23T12:25:46;15.32;;;8.05;;
59008;SDS011;44794;42.652;23.318;2023-02-23T12:34:08;12.70;;;7.13;;
59008;SDS011;44794;42.652;23.318;2023-02-23T12:39:34;12.77;;;7.13;;
59008;SDS011;44794;42.652;23.318;2023-02-23T12:42:15;13.02;;;7.15;;
59008;SDS011;44794;42.652;23.318;2023-02-23T12:52:38;19.38;;;8.80;;
59008;SDS011;44794;42.652;23.318;2023-02-23T12:55:09;17.23;;;8.15;;
59008;SDS011;44794;42.652;23.318;2023-02-23T13:00:35;14.55;;;8.20;;
59008;SDS011;44794;42.652;23.318;2023-02-23T13:03:08;14.73;;;9.15;;
59008;SDS011;44794;42.652;23.318;2023-02-23T13:08:25;20.08;;;9.52;;
59008;SDS011;44794;42.652;23.318;2023-02-23T13:11:29;16.40;;;9.77;;
59008;SDS011;44794;42.652;23.318;2023-02-23T13:14:13;22.85;;;10.00;;
59008;SDS011;44794;42.652;23.318;2023-02-23T13:17:07;21.65;;;9.65;;
59008;SDS011;44794;42.652;23.318;2023-02-23T13:19:54;18.42;;;8.50;;
59008;SDS011;44794;42.652;23.318;2023-02-23T13:25:22;18.25;;;8.43;;
59008;SDS011;44794;42.652;23.318;2023-02-23T13:27:56;16.27;;;8.50;;
59008;SDS011;44794;42.652;23.318;2023-02-23T13:30:24;16.50;;;8.45;;
59008;SDS011;44794;42.652;23.318;2023-02-23T13:32:50;16.08;;;8.23;;
59008;SDS011;44794;42.652;23.318;2023-02-23T13:35:17;13.57;;;8.18;;
59008;SDS011;44794;42.652;23.318;2023-02-23T13:45:49;17.58;;;8.32;;
59008;SDS011;44794;42.652;23.318;2023-02-23T13:54:22;20.00;;;8.07;;
59008;SDS011;44794;42.652;23.318;2023-02-23T13:56:54;16.17;;;7.68;;
59008;SDS011;44794;42.652;23.318;2023-02-23T13:59:27;16.30;;;7.50;;
59008;SDS011;44794;42.652;23.318;2023-02-23T14:01:58;16.65;;;8.02;;
59008;SDS011;44794;42.652;23.318;2023-02-23T14:04:40;18.38;;;8.45;;
59008;SDS011;44794;42.652;23.318;2023-02-23T14:09:51;17.20;;;8.45;;
59008;SDS011;44794;42.652;23.318;2023-02-23T14:12:30;21.05;;;8.02;;
59008;SDS011;44794;42.652;23.318;2023-02-23T14:17:56;15.68;;;8.00;;
59008;SDS011;44794;42.652;23.318;2023-02-23T14:21:12;14.55;;;8.15;;
59008;SDS011;44794;42.652;23.318;2023-02-23T14:25:51;14.23;;;7.70;;
59008;SDS011;44794;42.652;23.318;2023-02-23T14:28:46;17.20;;;8.82;;
59008;SDS011;44794;42.652;23.318;2023-02-23T14:31:34;14.40;;;7.93;;
59008;SDS011;44794;42.652;23.318;2023-02-23T14:34:08;10.95;;;6.88;;
59008;SDS011;44794;42.652;23.318;2023-02-23T14:36:41;11.82;;;7.38;;
59008;SDS011;44794;42.652;23.318;2023-02-23T14:39:15;15.55;;;7.30;;
59008;SDS011;44794;42.652;23.318;2023-02-23T14:41:54;22.33;;;7.72;;
59008;SDS011;44794;42.652;23.318;2023-02-23T14:44:25;17.15;;;7.03;;
59008;SDS011;44794;42.652;23.318;2023-02-23T14:49:31;11.80;;;6.63;;
59008;SDS011;44794;42.652;23.318;2023-02-23T14:52:11;15.43;;;7.03;;
59008;SDS011;44794;42.652;23.318;2023-02-23T14:54:39;13.35;;;6.90;;
59008;SDS011;44794;42.652;23.318;2023-02-23T14:57:06;11.13;;;6.90;;
59008;SDS011;44794;42.652;23.318;2023-02-23T14:59:42;16.75;;;6.90;;
59008;SDS011;44794;42.652;23.318;2023-02-23T15:02:19;12.50;;;7.10;;
59008;SDS011;44794;42.652;23.318;2023-02-23T15:04:48;12.63;;;6.90;;
59008;SDS011;44794;42.652;23.318;2023-02-23T15:07:18;15.23;;;7.82;;
59008;SDS011;44794;42.652;23.318;2023-02-23T15:09:55;14.15;;;7.50;;
59008;SDS011;44794;42.652;23.318;2023-02-23T15:12:24;14.68;;;8.35;;
59008;SDS011;44794;42.652;23.318;2023-02-23T15:14:58;19.70;;;8.63;;
59008;SDS011;44794;42.652;23.318;2023-02-23T15:17:26;16.48;;;7.38;;
59008;SDS011;44794;42.652;23.318;2023-02-23T15:24:57;15.50;;;8.55;;
59008;SDS011;44794;42.652;23.318;2023-02-23T15:27:30;18.38;;;8.75;;
59008;SDS011;44794;42.652;23.318;2023-02-23T15:30:42;19.73;;;8.90;;
59008;SDS011;44794;42.652;23.318;2023-02-23T15:35:26;14.02;;;9.07;;
59008;SDS011;44794;42.652;23.318;2023-02-23T15:37:52;16.25;;;9.52;;
59008;SDS011;44794;42.652;23.318;2023-02-23T15:40:19;16.42;;;9.43;;
59008;SDS011;44794;42.652;23.318;2023-02-23T15:42:49;17.27;;;9.43;;
59008;SDS011;44794;42.652;23.318;2023-02-23T15:45:29;16.35;;;9.23;;
59008;SDS011;44794;42.652;23.318;2023-02-23T15:48:01;14.82;;;9.35;;
59008;SDS011;44794;42.652;23.318;2023-02-23T15:50:30;13.25;;;8.90;;
59008;SDS011;44794;42.652;23.318;2023-02-23T15:53:02;15.82;;;8.80;;
59008;SDS011;44794;42.652;23.318;2023-02-23T15:55:37;15.80;;;9.20;;
59008;SDS011;44794;42.652;23.318;2023-02-23T16:00:58;14.75;;;9.05;;
59008;SDS011;44794;42.652;23.318;2023-02-23T16:03:31;17.92;;;9.35;;
59008;SDS011;44794;42.652;23.318;2023-02-23T16:06:03;14.55;;;9.20;;
59008;SDS011;44794;42.652;23.318;2023-02-23T16:08:30;13.80;;;9.35;;
59008;SDS011;44794;42.652;23.318;2023-02-23T16:13:43;18.35;;;10.32;;
59008;SDS011;44794;42.652;23.318;2023-02-23T16:16:10;18.95;;;10.43;;
59008;SDS011;44794;42.652;23.318;2023-02-23T16:18:43;18.98;;;10.75;;
59008;SDS011;44794;42.652;23.318;2023-02-23T16:21:15;17.55;;;10.93;;
59008;SDS011;44794;42.652;23.318;2023-02-23T16:23:46;17.77;;;10.23;;
59008;SDS011;44794;42.652;23.318;2023-02-23T16:26:17;16.77;;;9.93;;
59008;SDS011;44794;42.652;23.318;2023-02-23T16:28:51;18.23;;;10.75;;
59008;SDS011;44794;42.652;23.318;2023-02-23T16:31:24;16.65;;;10.63;;
59008;SDS011;44794;42.652;23.318;2023-02-23T16:34:16;23.58;;;10.50;;
59008;SDS011;44794;42.652;23.318;2023-02-23T16:36:54;19.95;;;10.63;;
59008;SDS011;44794;42.652;23.318;2023-02-23T16:39:29;13.85;;;9.82;;
59008;SDS011;44794;42.652;23.318;2023-02-23T16:41:56;24.05;;;10.00;;
59008;SDS011;44794;42.652;23.318;2023-02-23T16:44:23;18.10;;;10.45;;
59008;SDS011;44794;42.652;23.318;2023-02-23T16:49:25;17.85;;;9.75;;
59008;SDS011;44794;42.652;23.318;2023-02-23T16:51:55;19.67;;;9.75;;
59008;SDS011;44794;42.652;23.318;2023-02-23T16:54:21;13.82;;;8.77;;
59008;SDS011;44794;42.652;23.318;2023-02-23T16:56:47;18.52;;;9.45;;
59008;SDS011;44794;42.652;23.318;2023-02-23T16:59:14;12.98;;;8.65;;
59008;SDS011;44794;42.652;23.318;2023-02-23T17:01:42;16.63;;;9.18;;
59008;SDS011;44794;42.652;23.318;2023-02-23T17:04:11;13.98;;;8.70;;
59008;SDS011;44794;42.652;23.318;2023-02-23T17:06:42;15.02;;;8.95;;